createdAt,value
2018-07-08T00:00:05.198Z,982.54
2018-07-08T00:01:05.157Z,982.60
2018-07-08T00:02:05.086Z,982.54
2018-07-08T00:03:05.718Z,982.57
2018-07-08T00:04:05.583Z,982.51
2018-07-08T00:05:05.300Z,982.57
2018-07-08T00:06:05.294Z,982.63
2018-07-08T00:07:05.677Z,982.63
2018-07-08T00:08:05.000Z,982.43
2018-07-08T00:09:06.130Z,982.60
2018-07-08T00:10:05.467Z,982.57
2018-07-08T00:11:05.852Z,982.63
2018-07-08T00:12:05.681Z,982.60
2018-07-08T00:13:05.464Z,982.60
2018-07-08T00:14:05.062Z,982.66
2018-07-08T00:15:05.669Z,982.55
2018-07-08T00:16:05.385Z,982.52
2018-07-08T00:17:05.032Z,982.58
2018-07-08T00:18:05.397Z,982.58
2018-07-08T00:19:05.353Z,982.52
2018-07-08T00:20:05.775Z,982.58
2018-07-08T00:21:05.020Z,982.61
2018-07-08T00:22:04.941Z,982.52
2018-07-08T00:23:05.094Z,982.49
2018-07-08T00:24:05.728Z,982.61
2018-07-08T00:25:05.884Z,982.64
2018-07-08T00:26:05.793Z,982.64
2018-07-08T00:27:05.243Z,982.61
2018-07-08T00:28:05.354Z,982.55
2018-07-08T00:29:06.388Z,982.49
2018-07-08T00:30:05.294Z,982.52
2018-07-08T00:31:05.733Z,982.55
2018-07-08T00:32:05.187Z,982.69
2018-07-08T00:33:05.695Z,982.58
2018-07-08T00:34:04.912Z,982.66
2018-07-08T00:35:04.893Z,982.49
2018-07-08T00:36:04.964Z,982.55
2018-07-08T00:37:05.436Z,982.58
2018-07-08T00:38:05.169Z,982.55
2018-07-08T00:39:05.782Z,982.58
2018-07-08T00:40:05.809Z,982.64
2018-07-08T00:41:05.758Z,982.64
2018-07-08T00:42:05.653Z,982.72
2018-07-08T00:43:05.081Z,982.64
2018-07-08T00:44:05.465Z,982.64
2018-07-08T00:45:05.093Z,982.67
2018-07-08T00:46:04.976Z,982.67
2018-07-08T00:47:05.528Z,982.64
2018-07-08T00:48:05.315Z,982.55
2018-07-08T00:49:05.684Z,982.55
2018-07-08T00:50:05.942Z,982.70
2018-07-08T00:51:05.701Z,982.50
2018-07-08T00:52:05.242Z,982.47
2018-07-08T00:53:05.808Z,982.61
2018-07-08T00:54:06.007Z,982.53
2018-07-08T00:55:05.215Z,982.64
2018-07-08T00:56:06.760Z,982.56
2018-07-08T00:57:05.243Z,982.59
2018-07-08T00:58:05.735Z,982.56
2018-07-08T00:59:05.630Z,982.53
2018-07-08T01:00:04.886Z,982.50
2018-07-08T01:01:05.349Z,982.45
2018-07-08T01:02:04.963Z,982.42
2018-07-08T01:03:05.368Z,982.39
2018-07-08T01:04:06.177Z,982.53
2018-07-08T01:05:06.148Z,982.51
2018-07-08T01:06:05.568Z,982.51
2018-07-08T01:07:10.350Z,982.42
2018-07-08T01:08:10.411Z,982.33
2018-07-08T01:09:06.887Z,982.42
2018-07-08T01:10:04.998Z,982.56
2018-07-08T01:11:05.770Z,982.42
2018-07-08T01:12:05.292Z,982.39
2018-07-08T01:13:10.787Z,982.45
2018-07-08T01:14:05.089Z,982.51
2018-07-08T01:15:11.175Z,982.45
2018-07-08T01:16:05.029Z,982.40
2018-07-08T01:17:05.420Z,982.48
2018-07-08T01:18:05.588Z,982.51
2018-07-08T01:19:05.835Z,982.54
2018-07-08T01:20:04.941Z,982.51
2018-07-08T01:21:05.126Z,982.60
2018-07-08T01:22:05.066Z,982.49
2018-07-08T01:23:05.561Z,982.54
2018-07-08T01:24:05.173Z,982.43
2018-07-08T01:25:05.745Z,982.54
2018-07-08T01:26:05.481Z,982.40
2018-07-08T01:27:05.226Z,982.46
2018-07-08T01:28:05.493Z,982.55
2018-07-08T01:29:05.783Z,982.43
2018-07-08T01:30:05.269Z,982.40
2018-07-08T01:31:06.058Z,982.49
2018-07-08T01:32:06.167Z,982.46
2018-07-08T01:33:05.344Z,982.40
2018-07-08T01:34:05.648Z,982.58
2018-07-08T01:35:05.074Z,982.46
2018-07-08T01:36:04.980Z,982.55
2018-07-08T01:37:05.750Z,982.43
2018-07-08T01:38:04.989Z,982.49
2018-07-08T01:39:05.219Z,982.46
2018-07-08T01:40:05.245Z,982.47
2018-07-08T01:41:06.246Z,982.49
2018-07-08T01:42:06.285Z,982.41
2018-07-08T01:43:05.243Z,982.50
2018-07-08T01:44:05.739Z,982.52
2018-07-08T01:45:06.047Z,982.47
2018-07-08T01:46:05.604Z,982.47
2018-07-08T01:47:06.010Z,982.47
2018-07-08T01:48:05.227Z,982.41
2018-07-08T01:49:04.905Z,982.50
2018-07-08T01:50:05.315Z,982.41
2018-07-08T01:51:05.200Z,982.44
2018-07-08T01:52:05.447Z,982.38
2018-07-08T01:53:04.977Z,982.47
2018-07-08T01:54:05.693Z,982.47
2018-07-08T01:55:05.108Z,982.53
2018-07-08T01:56:05.875Z,982.53
2018-07-08T01:57:05.029Z,982.47
2018-07-08T01:58:09.875Z,982.59
2018-07-08T01:59:05.805Z,982.64
2018-07-08T02:00:05.618Z,982.53
2018-07-08T02:01:05.849Z,982.53
2018-07-08T02:02:05.650Z,982.33
2018-07-08T02:03:05.636Z,982.44
2018-07-08T02:04:04.903Z,982.47
2018-07-08T02:05:05.609Z,982.42
2018-07-08T02:06:06.134Z,982.47
2018-07-08T02:07:05.296Z,982.47
2018-07-08T02:08:05.672Z,982.59
2018-07-08T02:09:05.766Z,982.42
2018-07-08T02:10:05.710Z,982.45
2018-07-08T02:11:05.687Z,982.47
2018-07-08T02:12:05.592Z,982.53
2018-07-08T02:13:06.166Z,982.59
2018-07-08T02:14:05.591Z,982.56
2018-07-08T02:15:05.733Z,982.42
2018-07-08T02:16:05.844Z,982.47
2018-07-08T02:17:05.122Z,982.48
2018-07-08T02:18:05.048Z,982.56
2018-07-08T02:19:05.619Z,982.39
2018-07-08T02:20:05.612Z,982.54
2018-07-08T02:21:05.778Z,982.51
2018-07-08T02:22:05.477Z,982.54
2018-07-08T02:23:05.983Z,982.60
2018-07-08T02:24:05.195Z,982.48
2018-07-08T02:25:05.881Z,982.48
2018-07-08T02:26:09.916Z,982.54
2018-07-08T02:27:05.368Z,982.54
2018-07-08T02:28:05.661Z,982.51
2018-07-08T02:29:05.429Z,982.54
2018-07-08T02:30:05.604Z,982.46
2018-07-08T02:31:05.874Z,982.49
2018-07-08T02:32:10.590Z,982.57
2018-07-08T02:33:05.854Z,982.49
2018-07-08T02:34:05.782Z,982.46
2018-07-08T02:35:05.036Z,982.55
2018-07-08T02:36:05.579Z,982.64
2018-07-08T02:37:05.436Z,982.61
2018-07-08T02:38:10.445Z,982.61
2018-07-08T02:39:05.813Z,982.61
2018-07-08T02:40:05.621Z,982.61
2018-07-08T02:41:05.795Z,982.80
2018-07-08T02:42:05.890Z,982.70
2018-07-08T02:43:05.757Z,982.50
2018-07-08T02:44:05.981Z,982.47
2018-07-08T02:45:05.313Z,982.47
2018-07-08T02:46:05.484Z,982.55
2018-07-08T02:47:05.308Z,982.64
2018-07-08T02:48:04.887Z,982.58
2018-07-08T02:49:05.044Z,982.58
2018-07-08T02:50:05.587Z,982.73
2018-07-08T02:51:05.166Z,982.73
2018-07-08T02:52:05.819Z,982.67
2018-07-08T02:53:05.546Z,982.80
2018-07-08T02:54:05.323Z,982.75
2018-07-08T02:55:05.155Z,982.70
2018-07-08T02:56:05.617Z,982.86
2018-07-08T02:57:05.885Z,982.83
2018-07-08T02:58:10.904Z,982.64
2018-07-08T02:59:05.745Z,982.83
2018-07-08T03:00:05.045Z,982.92
2018-07-08T03:01:06.031Z,982.86
2018-07-08T03:02:05.020Z,982.75
2018-07-08T03:03:05.024Z,982.80
2018-07-08T03:04:06.048Z,982.64
2018-07-08T03:05:05.710Z,982.70
2018-07-08T03:06:05.643Z,982.58
2018-07-08T03:07:05.371Z,982.80
2018-07-08T03:08:05.055Z,982.73
2018-07-08T03:09:05.130Z,982.67
2018-07-08T03:10:05.070Z,982.86
2018-07-08T03:11:05.854Z,982.78
2018-07-08T03:12:05.797Z,982.70
2018-07-08T03:13:05.549Z,982.78
2018-07-08T03:14:05.555Z,982.86
2018-07-08T03:15:05.422Z,982.64
2018-07-08T03:16:05.356Z,982.81
2018-07-08T03:17:05.691Z,982.70
2018-07-08T03:18:05.061Z,982.67
2018-07-08T03:19:05.676Z,982.84
2018-07-08T03:20:05.656Z,982.81
2018-07-08T03:21:05.520Z,982.73
2018-07-08T03:22:05.434Z,982.81
2018-07-08T03:23:05.231Z,982.81
2018-07-08T03:24:05.048Z,982.70
2018-07-08T03:25:05.307Z,982.81
2018-07-08T03:26:05.582Z,982.84
2018-07-08T03:27:04.983Z,982.70
2018-07-08T03:28:10.642Z,982.84
2018-07-08T03:29:05.822Z,982.73
2018-07-08T03:30:04.953Z,982.73
2018-07-08T03:31:06.147Z,982.81
2018-07-08T03:32:05.175Z,982.78
2018-07-08T03:33:05.412Z,982.84
2018-07-08T03:34:05.777Z,982.78
2018-07-08T03:35:05.234Z,982.93
2018-07-08T03:36:05.800Z,982.87
2018-07-08T03:37:05.102Z,982.87
2018-07-08T03:38:04.925Z,982.90
2018-07-08T03:39:06.252Z,982.78
2018-07-08T03:40:05.444Z,982.90
2018-07-08T03:41:06.309Z,982.81
2018-07-08T03:42:05.183Z,982.81
2018-07-08T03:43:05.536Z,982.84
2018-07-08T03:44:05.619Z,982.84
2018-07-08T03:45:05.646Z,982.87
2018-07-08T03:46:05.779Z,982.81
2018-07-08T03:47:05.862Z,982.89
2018-07-08T03:48:05.159Z,982.81
2018-07-08T03:49:05.760Z,982.73
2018-07-08T03:50:05.267Z,982.81
2018-07-08T03:51:05.526Z,982.83
2018-07-08T03:52:05.136Z,982.89
2018-07-08T03:53:05.544Z,982.78
2018-07-08T03:54:05.812Z,982.98
2018-07-08T03:55:05.470Z,982.95
2018-07-08T03:56:05.262Z,982.83
2018-07-08T03:57:05.082Z,982.80
2018-07-08T03:58:06.431Z,982.80
2018-07-08T03:59:05.675Z,982.89
2018-07-08T04:00:05.699Z,982.80
2018-07-08T04:01:04.870Z,982.92
2018-07-08T04:02:05.819Z,982.83
2018-07-08T04:03:05.574Z,982.83
2018-07-08T04:04:05.483Z,982.80
2018-07-08T04:05:05.733Z,982.85
2018-07-08T04:06:05.359Z,982.82
2018-07-08T04:07:05.209Z,982.85
2018-07-08T04:08:05.826Z,982.84
2018-07-08T04:09:05.142Z,982.95
2018-07-08T04:10:05.628Z,982.80
2018-07-08T04:11:05.437Z,982.85
2018-07-08T04:12:05.147Z,982.79
2018-07-08T04:13:16.595Z,982.87
2018-07-08T04:14:05.304Z,982.95
2018-07-08T04:15:05.810Z,983.00
2018-07-08T04:16:05.149Z,982.82
2018-07-08T04:17:05.286Z,982.84
2018-07-08T04:18:05.348Z,982.89
2018-07-08T04:19:05.298Z,982.94
2018-07-08T04:20:05.425Z,982.94
2018-07-08T04:21:05.492Z,982.99
2018-07-08T04:22:05.504Z,982.92
2018-07-08T04:23:05.045Z,982.91
2018-07-08T04:24:05.976Z,982.94
2018-07-08T04:25:05.261Z,982.93
2018-07-08T04:26:05.605Z,982.87
2018-07-08T04:27:04.931Z,982.97
2018-07-08T04:28:05.513Z,982.91
2018-07-08T04:29:05.146Z,982.85
2018-07-08T04:30:05.387Z,982.96
2018-07-08T04:31:05.725Z,982.98
2018-07-08T04:32:05.170Z,982.98
2018-07-08T04:33:04.991Z,983.03
2018-07-08T04:34:04.958Z,982.97
2018-07-08T04:35:05.982Z,983.05
2018-07-08T04:36:04.962Z,982.99
2018-07-08T04:37:05.418Z,982.98
2018-07-08T04:38:04.894Z,982.92
2018-07-08T04:39:04.917Z,983.06
2018-07-08T04:40:05.690Z,983.03
2018-07-08T04:41:05.570Z,982.99
2018-07-08T04:42:11.438Z,983.11
2018-07-08T04:43:05.316Z,983.07
2018-07-08T04:44:05.629Z,983.10
2018-07-08T04:45:05.125Z,983.18
2018-07-08T04:46:05.581Z,983.12
2018-07-08T04:47:05.539Z,983.03
2018-07-08T04:48:05.360Z,982.88
2018-07-08T04:49:05.864Z,983.11
2018-07-08T04:50:04.876Z,983.11
2018-07-08T04:51:04.948Z,983.07
2018-07-08T04:52:04.907Z,983.04
2018-07-08T04:53:05.524Z,983.04
2018-07-08T04:54:05.007Z,983.00
2018-07-08T04:55:05.095Z,983.03
2018-07-08T04:56:05.612Z,982.97
2018-07-08T04:57:05.427Z,983.02
2018-07-08T04:58:05.488Z,983.05
2018-07-08T04:59:05.603Z,982.96
2018-07-08T05:00:04.950Z,983.07
2018-07-08T05:01:05.455Z,983.10
2018-07-08T05:02:05.464Z,982.95
2018-07-08T05:03:05.042Z,983.06
2018-07-08T05:04:05.184Z,983.00
2018-07-08T05:05:05.007Z,983.14
2018-07-08T05:06:05.727Z,983.26
2018-07-08T05:07:05.902Z,983.08
2018-07-08T05:08:10.441Z,983.17
2018-07-08T05:09:05.341Z,983.19
2018-07-08T05:10:04.897Z,983.13
2018-07-08T05:11:05.229Z,983.07
2018-07-08T05:12:05.761Z,983.13
2018-07-08T05:13:05.706Z,983.22
2018-07-08T05:14:05.175Z,983.21
2018-07-08T05:15:10.835Z,983.24
2018-07-08T05:16:05.630Z,983.15
2018-07-08T05:17:05.727Z,983.03
2018-07-08T05:18:05.570Z,983.26
2018-07-08T05:19:05.235Z,983.17
2018-07-08T05:20:05.109Z,983.23
2018-07-08T05:21:05.096Z,983.14
2018-07-08T05:22:05.675Z,983.08
2018-07-08T05:23:10.114Z,983.13
2018-07-08T05:24:05.118Z,983.02
2018-07-08T05:25:05.823Z,983.19
2018-07-08T05:26:05.619Z,983.07
2018-07-08T05:27:05.735Z,983.18
2018-07-08T05:28:05.194Z,983.15
2018-07-08T05:29:06.175Z,983.09
2018-07-08T05:30:05.341Z,983.10
2018-07-08T05:31:05.288Z,983.10
2018-07-08T05:32:05.176Z,983.13
2018-07-08T05:33:05.662Z,983.16
2018-07-08T05:34:05.862Z,983.13
2018-07-08T05:35:05.155Z,983.13
2018-07-08T05:36:05.055Z,983.19
2018-07-08T05:37:05.740Z,983.08
2018-07-08T05:38:05.791Z,983.11
2018-07-08T05:39:05.251Z,983.19
2018-07-08T05:40:04.974Z,983.10
2018-07-08T05:41:05.628Z,983.16
2018-07-08T05:42:05.310Z,983.13
2018-07-08T05:43:05.449Z,983.18
2018-07-08T05:44:05.413Z,983.21
2018-07-08T05:45:05.575Z,983.03
2018-07-08T05:46:06.788Z,983.18
2018-07-08T05:47:05.910Z,983.17
2018-07-08T05:48:05.846Z,983.14
2018-07-08T05:49:05.304Z,983.14
2018-07-08T05:50:05.803Z,983.17
2018-07-08T05:51:05.051Z,983.08
2018-07-08T05:52:05.722Z,983.11
2018-07-08T05:53:05.708Z,983.14
2018-07-08T05:54:05.833Z,983.14
2018-07-08T05:55:05.938Z,983.20
2018-07-08T05:56:05.095Z,983.11
2018-07-08T05:57:05.997Z,983.14
2018-07-08T05:58:05.813Z,983.02
2018-07-08T05:59:05.349Z,983.11
2018-07-08T06:00:05.415Z,983.11
2018-07-08T06:01:04.886Z,982.99
2018-07-08T06:02:05.477Z,983.07
2018-07-08T06:03:05.140Z,983.04
2018-07-08T06:04:05.080Z,983.13
2018-07-08T06:05:05.936Z,983.09
2018-07-08T06:06:05.223Z,983.06
2018-07-08T06:07:05.299Z,983.12
2018-07-08T06:08:05.135Z,983.06
2018-07-08T06:09:05.408Z,982.97
2018-07-08T06:10:05.309Z,983.09
2018-07-08T06:11:05.507Z,983.06
2018-07-08T06:12:05.625Z,983.11
2018-07-08T06:13:05.289Z,983.11
2018-07-08T06:14:05.702Z,983.11
2018-07-08T06:15:05.162Z,982.96
2018-07-08T06:16:05.578Z,983.08
2018-07-08T06:17:05.712Z,983.02
2018-07-08T06:18:05.345Z,982.96
2018-07-08T06:19:05.084Z,982.96
2018-07-08T06:20:05.757Z,982.96
2018-07-08T06:21:05.645Z,982.90
2018-07-08T06:22:05.774Z,982.90
2018-07-08T06:23:05.909Z,982.90
2018-07-08T06:24:04.967Z,983.01
2018-07-08T06:25:10.647Z,983.04
2018-07-08T06:26:05.564Z,982.98
2018-07-08T06:27:05.505Z,983.10
2018-07-08T06:28:05.659Z,982.98
2018-07-08T06:29:05.393Z,983.13
2018-07-08T06:30:05.572Z,982.98
2018-07-08T06:31:05.501Z,983.01
2018-07-08T06:32:05.068Z,982.89
2018-07-08T06:33:05.209Z,982.89
2018-07-08T06:34:05.885Z,982.80
2018-07-08T06:35:05.663Z,982.94
2018-07-08T06:36:05.675Z,982.94
2018-07-08T06:37:05.349Z,982.97
2018-07-08T06:38:05.827Z,983.05
2018-07-08T06:39:10.479Z,982.99
2018-07-08T06:40:05.362Z,983.14
2018-07-08T06:41:05.542Z,982.99
2018-07-08T06:42:05.868Z,983.02
2018-07-08T06:43:10.757Z,982.94
2018-07-08T06:44:05.523Z,982.99
2018-07-08T06:45:05.056Z,982.94
2018-07-08T06:46:05.366Z,982.93
2018-07-08T06:47:05.903Z,982.87
2018-07-08T06:48:05.080Z,983.05
2018-07-08T06:49:04.977Z,983.05
2018-07-08T06:50:05.009Z,982.96
2018-07-08T06:51:10.666Z,983.02
2018-07-08T06:52:05.950Z,982.93
2018-07-08T06:53:05.230Z,982.93
2018-07-08T06:54:05.306Z,983.08
2018-07-08T06:55:05.335Z,982.99
2018-07-08T06:56:05.479Z,983.05
2018-07-08T06:57:05.472Z,983.02
2018-07-08T06:58:05.692Z,982.96
2018-07-08T06:59:05.555Z,983.01
2018-07-08T07:00:05.818Z,982.98
2018-07-08T07:01:05.192Z,982.90
2018-07-08T07:02:05.530Z,982.98
2018-07-08T07:03:05.106Z,982.98
2018-07-08T07:04:04.923Z,982.92
2018-07-08T07:05:05.393Z,983.01
2018-07-08T07:06:05.300Z,982.92
2018-07-08T07:07:05.415Z,982.98
2018-07-08T07:08:05.147Z,982.96
2018-07-08T07:09:05.913Z,982.96
2018-07-08T07:10:05.028Z,982.93
2018-07-08T07:11:05.884Z,983.07
2018-07-08T07:12:05.837Z,982.99
2018-07-08T07:13:05.452Z,982.93
2018-07-08T07:14:05.219Z,983.05
2018-07-08T07:15:05.207Z,983.10
2018-07-08T07:16:05.095Z,982.99
2018-07-08T07:17:05.813Z,983.05
2018-07-08T07:18:05.229Z,983.02
2018-07-08T07:19:06.513Z,982.96
2018-07-08T07:20:04.981Z,983.05
2018-07-08T07:21:05.557Z,983.00
2018-07-08T07:22:05.059Z,982.94
2018-07-08T07:23:05.465Z,983.03
2018-07-08T07:24:05.489Z,983.00
2018-07-08T07:25:05.080Z,982.98
2018-07-08T07:26:05.876Z,983.06
2018-07-08T07:27:05.080Z,983.09
2018-07-08T07:28:05.069Z,983.09
2018-07-08T07:29:05.122Z,983.09
2018-07-08T07:30:04.943Z,983.03
2018-07-08T07:31:05.451Z,982.98
2018-07-08T07:32:05.568Z,982.97
2018-07-08T07:33:05.574Z,983.09
2018-07-08T07:34:05.480Z,982.97
2018-07-08T07:35:05.114Z,983.06
2018-07-08T07:36:05.145Z,983.09
2018-07-08T07:37:06.889Z,983.06
2018-07-08T07:38:05.118Z,983.00
2018-07-08T07:39:06.000Z,983.14
2018-07-08T07:40:05.684Z,983.23
2018-07-08T07:41:05.777Z,983.11
2018-07-08T07:42:05.540Z,983.17
2018-07-08T07:43:05.490Z,983.23
2018-07-08T07:44:05.148Z,983.23
2018-07-08T07:45:05.851Z,983.05
2018-07-08T07:46:05.208Z,983.00
2018-07-08T07:47:05.812Z,983.00
2018-07-08T07:48:06.295Z,983.15
2018-07-08T07:49:05.690Z,983.18
2018-07-08T07:50:05.388Z,983.00
2018-07-08T07:51:05.238Z,983.06
2018-07-08T07:52:05.898Z,983.18
2018-07-08T07:53:05.035Z,983.12
2018-07-08T07:54:05.926Z,983.06
2018-07-08T07:55:05.017Z,983.09
2018-07-08T07:56:05.725Z,983.26
2018-07-08T07:57:05.179Z,983.11
2018-07-08T07:58:05.903Z,983.17
2018-07-08T07:59:05.888Z,983.17
2018-07-08T08:00:05.066Z,983.15
2018-07-08T08:01:05.609Z,983.18
2018-07-08T08:02:10.382Z,983.09
2018-07-08T08:03:05.763Z,983.18
2018-07-08T08:04:05.763Z,983.22
2018-07-08T08:05:05.228Z,983.25
2018-07-08T08:06:05.216Z,983.05
2018-07-08T08:07:05.967Z,982.99
2018-07-08T08:08:05.266Z,983.08
2018-07-08T08:09:05.307Z,983.08
2018-07-08T08:10:05.525Z,983.20
2018-07-08T08:11:05.389Z,983.20
2018-07-08T08:12:05.813Z,983.05
2018-07-08T08:13:05.494Z,983.05
2018-07-08T08:14:06.216Z,983.17
2018-07-08T08:15:05.188Z,983.25
2018-07-08T08:16:06.348Z,983.05
2018-07-08T08:17:05.429Z,983.19
2018-07-08T08:18:05.397Z,983.16
2018-07-08T08:19:05.229Z,983.01
2018-07-08T08:20:05.485Z,983.19
2018-07-08T08:21:05.329Z,983.19
2018-07-08T08:22:05.638Z,983.19
2018-07-08T08:23:05.338Z,983.10
2018-07-08T08:24:05.427Z,983.15
2018-07-08T08:25:10.863Z,983.06
2018-07-08T08:26:05.406Z,983.12
2018-07-08T08:27:05.221Z,983.06
2018-07-08T08:28:05.773Z,983.12
2018-07-08T08:29:04.912Z,983.15
2018-07-08T08:30:05.436Z,983.03
2018-07-08T08:31:05.845Z,983.09
2018-07-08T08:32:05.189Z,983.06
2018-07-08T08:33:04.964Z,983.12
2018-07-08T08:34:04.900Z,983.18
2018-07-08T08:35:08.351Z,983.24
2018-07-08T08:36:10.027Z,983.03
2018-07-08T08:37:05.338Z,982.97
2018-07-08T08:38:05.416Z,983.18
2018-07-08T08:39:05.779Z,983.09
2018-07-08T08:40:05.874Z,983.09
2018-07-08T08:41:05.870Z,982.97
2018-07-08T08:42:05.236Z,983.15
2018-07-08T08:43:05.147Z,983.12
2018-07-08T08:44:05.579Z,983.12
2018-07-08T08:45:05.127Z,983.15
2018-07-08T08:46:05.588Z,983.23
2018-07-08T08:47:05.392Z,983.12
2018-07-08T08:48:04.955Z,983.03
2018-07-08T08:49:05.683Z,983.23
2018-07-08T08:50:04.965Z,983.26
2018-07-08T08:51:05.686Z,983.20
2018-07-08T08:52:05.088Z,983.11
2018-07-08T08:53:05.630Z,983.11
2018-07-08T08:54:05.037Z,983.17
2018-07-08T08:55:05.803Z,983.23
2018-07-08T08:56:05.662Z,983.26
2018-07-08T08:57:05.747Z,983.26
2018-07-08T08:58:04.978Z,983.29
2018-07-08T08:59:05.567Z,983.17
2018-07-08T09:00:05.231Z,983.15
2018-07-08T09:01:05.448Z,983.24
2018-07-08T09:02:04.973Z,983.29
2018-07-08T09:03:05.378Z,983.15
2018-07-08T09:04:05.450Z,983.24
2018-07-08T09:05:05.352Z,983.18
2018-07-08T09:06:05.585Z,983.24
2018-07-08T09:07:05.460Z,983.12
2018-07-08T09:08:05.908Z,983.18
2018-07-08T09:09:04.939Z,983.12
2018-07-08T09:10:04.987Z,983.24
2018-07-08T09:11:04.897Z,983.15
2018-07-08T09:12:05.018Z,983.15
2018-07-08T09:13:06.508Z,983.06
2018-07-08T09:14:04.995Z,983.12
2018-07-08T09:15:05.653Z,983.12
2018-07-08T09:16:05.644Z,983.00
2018-07-08T09:17:04.945Z,983.12
2018-07-08T09:18:05.681Z,983.10
2018-07-08T09:19:05.010Z,983.13
2018-07-08T09:20:05.056Z,983.13
2018-07-08T09:21:05.930Z,983.01
2018-07-08T09:22:05.568Z,983.01
2018-07-08T09:23:05.566Z,983.01
2018-07-08T09:24:05.652Z,982.98
2018-07-08T09:25:05.399Z,983.10
2018-07-08T09:26:05.769Z,983.10
2018-07-08T09:27:05.094Z,983.10
2018-07-08T09:28:05.005Z,983.07
2018-07-08T09:29:05.675Z,983.22
2018-07-08T09:30:05.263Z,983.02
2018-07-08T09:31:05.695Z,983.11
2018-07-08T09:32:05.523Z,983.05
2018-07-08T09:33:05.251Z,982.93
2018-07-08T09:34:05.732Z,983.08
2018-07-08T09:35:05.275Z,983.11
2018-07-08T09:36:05.136Z,983.05
2018-07-08T09:37:06.112Z,983.11
2018-07-08T09:38:04.992Z,983.02
2018-07-08T09:39:05.618Z,983.16
2018-07-08T09:40:05.658Z,983.05
2018-07-08T09:41:04.974Z,983.08
2018-07-08T09:42:05.230Z,983.14
2018-07-08T09:43:05.824Z,983.02
2018-07-08T09:44:05.545Z,983.10
2018-07-08T09:45:05.600Z,983.19
2018-07-08T09:46:05.001Z,983.22
2018-07-08T09:47:05.365Z,983.10
2018-07-08T09:48:05.165Z,983.13
2018-07-08T09:49:05.164Z,983.10
2018-07-08T09:50:05.311Z,983.18
2018-07-08T09:51:05.212Z,983.15
2018-07-08T09:52:04.892Z,983.24
2018-07-08T09:53:05.865Z,983.24
2018-07-08T09:54:05.589Z,983.15
2018-07-08T09:55:05.102Z,983.23
2018-07-08T09:56:04.897Z,983.20
2018-07-08T09:57:05.244Z,983.17
2018-07-08T09:58:05.395Z,983.14
2018-07-08T09:59:05.356Z,983.25
2018-07-08T10:00:05.469Z,983.28
2018-07-08T10:01:05.722Z,983.28
2018-07-08T10:02:06.467Z,983.13
2018-07-08T10:03:05.171Z,983.16
2018-07-08T10:04:05.087Z,983.19
2018-07-08T10:05:05.873Z,983.10
2018-07-08T10:06:05.169Z,983.22
2018-07-08T10:07:05.339Z,983.16
2018-07-08T10:08:05.030Z,983.16
2018-07-08T10:09:05.815Z,983.30
2018-07-08T10:10:05.260Z,983.30
2018-07-08T10:11:05.937Z,983.04
2018-07-08T10:12:04.891Z,983.27
2018-07-08T10:13:04.916Z,983.24
2018-07-08T10:14:06.049Z,983.15
2018-07-08T10:15:05.049Z,983.18
2018-07-08T10:16:05.484Z,983.30
2018-07-08T10:17:05.999Z,983.24
2018-07-08T10:18:05.940Z,983.14
2018-07-08T10:19:05.046Z,983.11
2018-07-08T10:20:04.987Z,983.20
2018-07-08T10:21:04.968Z,983.08
2018-07-08T10:22:10.528Z,983.14
2018-07-08T10:23:05.383Z,983.17
2018-07-08T10:24:05.009Z,983.05
2018-07-08T10:25:05.982Z,983.11
2018-07-08T10:26:05.472Z,983.11
2018-07-08T10:27:05.535Z,983.05
2018-07-08T10:28:06.198Z,983.08
2018-07-08T10:29:05.847Z,983.11
2018-07-08T10:30:05.579Z,982.97
2018-07-08T10:31:05.059Z,982.91
2018-07-08T10:32:05.742Z,983.02
2018-07-08T10:33:04.916Z,982.99
2018-07-08T10:34:05.448Z,983.11
2018-07-08T10:35:05.259Z,982.99
2018-07-08T10:36:05.593Z,983.01
2018-07-08T10:37:05.721Z,982.95
2018-07-08T10:38:04.913Z,982.95
2018-07-08T10:39:05.030Z,983.13
2018-07-08T10:40:04.974Z,983.01
2018-07-08T10:41:05.117Z,983.04
2018-07-08T10:42:05.901Z,983.02
2018-07-08T10:43:05.064Z,982.99
2018-07-08T10:44:05.152Z,982.96
2018-07-08T10:45:05.206Z,982.96
2018-07-08T10:46:05.267Z,983.00
2018-07-08T10:47:05.298Z,983.00
2018-07-08T10:48:05.675Z,983.09
2018-07-08T10:49:05.081Z,983.00
2018-07-08T10:50:05.983Z,983.09
2018-07-08T10:51:10.512Z,983.00
2018-07-08T10:52:05.262Z,983.06
2018-07-08T10:53:05.749Z,982.94
2018-07-08T10:54:05.090Z,983.12
2018-07-08T10:55:05.626Z,982.89
2018-07-08T10:56:05.290Z,983.03
2018-07-08T10:57:05.916Z,983.09
2018-07-08T10:58:05.844Z,982.75
2018-07-08T10:59:05.202Z,982.89
2018-07-08T11:00:05.682Z,982.83
2018-07-08T11:01:05.070Z,983.01
2018-07-08T11:02:05.881Z,982.98
2018-07-08T11:03:05.866Z,982.95
2018-07-08T11:04:05.153Z,982.94
2018-07-08T11:05:05.774Z,982.91
2018-07-08T11:06:04.977Z,982.89
2018-07-08T11:07:05.499Z,982.92
2018-07-08T11:08:05.521Z,982.95
2018-07-08T11:09:04.980Z,982.89
2018-07-08T11:10:05.441Z,982.86
2018-07-08T11:11:05.216Z,983.01
2018-07-08T11:12:05.404Z,982.98
2018-07-08T11:13:05.955Z,982.98
2018-07-08T11:14:05.718Z,982.89
2018-07-08T11:15:05.603Z,982.89
2018-07-08T11:16:05.563Z,982.95
2018-07-08T11:17:05.230Z,982.95
2018-07-08T11:18:05.674Z,983.07
2018-07-08T11:19:05.206Z,982.73
2018-07-08T11:20:05.452Z,982.95
2018-07-08T11:21:05.450Z,982.80
2018-07-08T11:22:10.052Z,982.83
2018-07-08T11:23:05.838Z,983.07
2018-07-08T11:24:05.751Z,982.92
2018-07-08T11:25:05.464Z,982.95
2018-07-08T11:26:05.750Z,982.80
2018-07-08T11:27:10.578Z,982.95
2018-07-08T11:28:06.532Z,982.83
2018-07-08T11:29:04.903Z,982.72
2018-07-08T11:30:05.240Z,982.98
2018-07-08T11:31:05.020Z,983.01
2018-07-08T11:32:05.758Z,982.98
2018-07-08T11:33:05.533Z,982.95
2018-07-08T11:34:05.572Z,982.86
2018-07-08T11:35:05.284Z,982.84
2018-07-08T11:36:05.102Z,982.92
2018-07-08T11:37:05.734Z,982.90
2018-07-08T11:38:05.747Z,982.84
2018-07-08T11:39:05.190Z,982.92
2018-07-08T11:40:05.026Z,982.81
2018-07-08T11:41:05.550Z,982.80
2018-07-08T11:42:05.527Z,982.64
2018-07-08T11:43:05.334Z,982.80
2018-07-08T11:44:05.830Z,982.80
2018-07-08T11:45:05.115Z,982.79
2018-07-08T11:46:05.481Z,982.79
2018-07-08T11:47:04.975Z,982.68
2018-07-08T11:48:05.272Z,982.82
2018-07-08T11:49:05.031Z,982.94
2018-07-08T11:50:05.495Z,982.85
2018-07-08T11:51:05.310Z,982.85
2018-07-08T11:52:05.592Z,982.88
2018-07-08T11:53:05.608Z,982.91
2018-07-08T11:54:05.345Z,982.69
2018-07-08T11:55:05.210Z,982.83
2018-07-08T11:56:04.933Z,982.97
2018-07-08T11:57:05.193Z,982.86
2018-07-08T11:58:05.257Z,982.89
2018-07-08T11:59:05.376Z,982.89
2018-07-08T12:00:05.291Z,982.92
2018-07-08T12:01:05.449Z,982.80
2018-07-08T12:02:05.437Z,983.01
2018-07-08T12:03:04.948Z,982.87
2018-07-08T12:04:05.483Z,982.90
2018-07-08T12:05:05.091Z,983.02
2018-07-08T12:06:05.002Z,982.81
2018-07-08T12:07:05.416Z,982.93
2018-07-08T12:08:05.564Z,982.93
2018-07-08T12:09:05.368Z,982.96
2018-07-08T12:10:05.487Z,982.81
2018-07-08T12:11:05.355Z,982.87
2018-07-08T12:12:05.515Z,982.81
2018-07-08T12:13:05.405Z,982.84
2018-07-08T12:14:05.211Z,982.84
2018-07-08T12:15:05.135Z,982.95
2018-07-08T12:16:04.968Z,982.72
2018-07-08T12:17:05.396Z,982.75
2018-07-08T12:18:05.131Z,982.72
2018-07-08T12:19:05.635Z,982.74
2018-07-08T12:20:05.596Z,982.82
2018-07-08T12:21:05.500Z,982.74
2018-07-08T12:22:05.859Z,982.88
2018-07-08T12:23:05.153Z,982.79
2018-07-08T12:24:05.028Z,982.85
2018-07-08T12:25:05.928Z,982.71
2018-07-08T12:26:05.210Z,982.71
2018-07-08T12:27:05.829Z,982.79
2018-07-08T12:28:05.289Z,982.82